Time;durP1;ratioP1;P1;durP2;ratioP2;P2;SDS_P1;SDS_P2;PMS_P1;PMS_P2;Temp;Humidity;BMP_temperature;BMP_pressure;BME280_temperature;BME280_humidity;BME280_pressure;Samples;Min_cycle;Max_cycle;Signal;HPM_P1;HPM_P2
2020/12/25 00:03:58;;;;;;;11.22;8.20;;;;;;;4.17;93.98;98125.91;4166087;84;21225;-85
2020/12/25 00:09:59;;;;;;;12.88;9.45;;;;;;;4.08;93.74;98136.72;4168124;84;21675;-85
2020/12/25 00:16:01;;;;;;;14.78;9.18;;;;;;;4.05;93.95;98149.06;4175505;84;21325;-85
2020/12/25 00:22:02;;;;;;;11.22;7.92;;;;;;;4.00;94.02;98159.36;4172307;84;21202;-85
2020/12/25 00:28:04;;;;;;;10.13;7.28;;;;;;;3.98;94.10;98164.33;4169503;84;21237;-86
2020/12/25 00:34:10;;;;;;;9.93;7.03;;;;;;;3.87;93.15;98168.73;4170213;84;21650;-86
2020/12/25 00:40:12;;;;;;;11.28;6.60;;;;;;;3.82;93.33;98172.47;4169009;84;21171;-85
2020/12/25 00:46:14;;;;;;;9.93;6.87;;;;;;;3.76;93.55;98189.35;4169759;84;21944;-86
2020/12/25 00:52:16;;;;;;;11.57;7.20;;;;;;;3.68;93.32;98195.13;4173174;84;21371;-84
2020/12/25 00:58:18;;;;;;;8.53;6.00;;;;;;;3.63;93.55;98191.91;4171387;84;21414;-85
2020/12/25 01:04:20;;;;;;;12.30;6.65;;;;;;;3.61;93.37;98205.80;4174235;84;21213;-85
2020/12/25 01:10:21;;;;;;;10.68;7.35;;;;;;;3.60;93.25;98206.14;4169479;84;21347;-86
2020/12/25 01:16:23;;;;;;;12.40;8.30;;;;;;;3.57;93.49;98213.61;4150278;84;22107;-85
2020/12/25 01:22:25;;;;;;;16.90;7.40;;;;;;;3.56;93.32;98221.48;4153860;84;21202;-85
2020/12/25 01:28:26;;;;;;;12.40;7.47;;;;;;;3.56;93.32;98218.22;4129274;84;21748;-86
2020/12/25 01:34:28;;;;;;;10.80;7.08;;;;;;;3.55;93.20;98217.22;4126573;84;21197;-86
2020/12/25 01:40:40;;;;;;;8.95;6.47;;;;;;;3.53;93.19;98222.18;4129625;84;21935;-85
2020/12/25 01:46:42;;;;;;;11.70;7.55;;;;;;;3.50;92.96;98226.38;4144623;84;21784;-86
2020/12/25 01:52:45;;;;;;;12.55;7.33;;;;;;;3.50;93.19;98229.09;4127472;84;21177;-86
2020/12/25 01:58:46;;;;;;;13.95;8.68;;;;;;;3.49;93.26;98231.58;4146147;85;21200;-85
2020/12/25 02:04:48;;;;;;;12.73;8.15;;;;;;;3.47;93.05;98243.87;4156985;84;21186;-85
2020/12/25 02:10:49;;;;;;;11.65;7.33;;;;;;;3.49;93.26;98249.17;4150411;84;22346;-86
2020/12/25 02:16:51;;;;;;;14.50;8.95;;;;;;;3.51;93.13;98248.23;4128429;85;21194;-85
2020/12/25 02:22:52;;;;;;;10.93;7.62;;;;;;;3.51;93.28;98259.64;4110937;85;21170;-86
2020/12/25 02:28:53;;;;;;;10.50;7.20;;;;;;;3.55;93.25;98265.38;4124046;85;21167;-85
2020/12/25 02:34:55;;;;;;;12.68;6.95;;;;;;;3.54;93.16;98266.48;4129020;85;21175;-85
2020/12/25 02:40:56;;;;;;;13.43;7.90;;;;;;;3.51;93.07;98271.23;4121507;85;21723;-86
2020/12/25 02:46:58;;;;;;;14.70;9.75;;;;;;;3.47;93.12;98268.22;4122317;85;21267;-85
2020/12/25 02:52:59;;;;;;;15.35;9.50;;;;;;;3.45;93.35;98272.63;4125418;85;21868;-86
2020/12/25 02:59:01;;;;;;;14.23;7.87;;;;;;;3.42;93.47;98275.22;4122366;85;21324;-85
2020/12/25 03:05:03;;;;;;;12.03;8.70;;;;;;;3.42;93.37;98281.44;4120371;85;21199;-85
2020/12/25 03:11:05;;;;;;;14.33;9.25;;;;;;;3.45;93.56;98282.09;4122592;85;21321;-86
2020/12/25 03:17:15;;;;;;;13.43;8.58;;;;;;;3.40;93.52;98283.69;4122645;85;21231;-86
2020/12/25 03:23:17;;;;;;;13.38;7.37;;;;;;;3.42;93.66;98293.61;4121352;85;21352;-85
2020/12/25 03:29:29;;;;;;;16.85;9.23;;;;;;;3.44;93.49;98294.06;4131216;85;21174;-85
2020/12/25 03:35:31;;;;;;;17.95;10.35;;;;;;;3.44;93.65;98301.38;4133153;85;21365;-85
2020/12/25 03:41:32;;;;;;;16.30;10.00;;;;;;;3.42;93.57;98315.25;4132333;85;21218;-85
2020/12/25 03:47:34;;;;;;;14.00;10.43;;;;;;;3.37;93.52;98320.14;4117275;85;21159;-85
2020/12/25 03:53:35;;;;;;;17.98;10.58;;;;;;;3.37;93.77;98325.55;4126088;85;22200;-86
2020/12/25 03:59:40;;;;;;;21.17;11.65;;;;;;;3.36;93.86;98330.16;4140003;85;21300;-85
2020/12/25 04:05:42;;;;;;;12.28;8.28;;;;;;;3.38;93.87;98337.38;4127031;85;21332;-85
2020/12/25 04:11:43;;;;;;;11.78;8.13;;;;;;;3.44;93.84;98346.02;4138977;84;21266;-85
2020/12/25 04:17:45;;;;;;;9.15;6.22;;;;;;;3.41;93.62;98358.89;4162586;84;21187;-85
2020/12/25 04:23:46;;;;;;;9.25;5.60;;;;;;;3.32;93.40;98349.55;4161816;84;21151;-86
2020/12/25 04:29:48;;;;;;;10.85;6.03;;;;;;;3.32;93.52;98367.12;4170261;84;21150;-85
2020/12/25 04:35:50;;;;;;;8.05;6.10;;;;;;;3.34;93.41;98374.34;4164795;84;21302;-85
2020/12/25 04:41:51;;;;;;;10.65;6.40;;;;;;;3.40;93.57;98384.38;4165539;84;21211;-85
2020/12/25 04:47:52;;;;;;;11.10;7.30;;;;;;;3.36;93.45;98386.17;4165174;84;22018;-85
2020/12/25 04:53:55;;;;;;;12.13;7.28;;;;;;;3.38;93.43;98391.48;4164850;84;21644;-86
2020/12/25 04:59:57;;;;;;;10.80;6.15;;;;;;;3.35;93.25;98394.08;4166338;84;21175;-85
2020/12/25 05:06:09;;;;;;;8.65;6.53;;;;;;;3.29;93.17;98391.39;4163167;84;21187;-85
2020/12/25 05:12:11;;;;;;;12.00;6.67;;;;;;;3.29;93.37;98396.22;4163695;84;21174;-85
2020/12/25 05:18:16;;;;;;;10.85;7.70;;;;;;;3.36;93.34;98404.56;4164512;84;21660;-85
2020/12/25 05:24:18;;;;;;;13.75;8.28;;;;;;;3.37;93.29;98406.71;4172109;83;22629;-86
2020/12/25 05:30:19;;;;;;;14.30;8.33;;;;;;;3.39;93.44;98411.19;4166748;84;21597;-85
2020/12/25 05:36:28;;;;;;;14.10;8.75;;;;;;;3.40;93.33;98411.44;4163257;84;21210;-86
2020/12/25 05:42:34;;;;;;;15.53;9.48;;;;;;;3.42;93.22;98425.39;4164809;84;21347;-86
2020/12/25 05:48:35;;;;;;;32.27;16.63;;;;;;;3.36;93.12;98425.41;4165773;84;21177;-86
2020/12/25 05:54:40;;;;;;;22.77;13.83;;;;;;;3.37;93.20;98434.53;4164159;84;21654;-85
2020/12/25 06:00:43;;;;;;;107.83;51.23;;;;;;;3.34;93.08;98444.69;4161139;84;21362;-85
2020/12/25 06:06:47;;;;;;;33.05;18.80;;;;;;;3.29;93.26;98461.14;4158308;84;21667;-86
2020/12/25 06:12:50;;;;;;;29.55;18.35;;;;;;;3.24;93.21;98474.34;4167088;84;21729;-85
2020/12/25 06:19:11;;;;;;;27.82;16.23;;;;;;;3.23;93.30;98486.30;4168512;84;21202;-85
2020/12/25 06:25:15;;;;;;;22.80;12.78;;;;;;;3.29;93.20;98489.55;4162358;84;21187;-86
2020/12/25 06:31:41;;;;;;;18.52;10.48;;;;;;;3.32;93.34;98492.16;4163796;84;21314;-86
2020/12/25 06:37:44;;;;;;;15.30;9.50;;;;;;;3.29;93.17;98500.95;4169337;84;21202;-86
2020/12/25 06:43:49;;;;;;;13.75;8.48;;;;;;;3.27;93.08;98504.00;4117151;85;21621;-86
2020/12/25 06:49:51;;;;;;;13.75;8.70;;;;;;;3.29;93.05;98509.06;4123404;85;21660;-85
2020/12/25 06:55:56;;;;;;;13.30;8.93;;;;;;;3.30;92.85;98517.39;4122854;85;21220;-85
2020/12/25 07:02:02;;;;;;;14.93;8.00;;;;;;;3.23;92.84;98514.70;4092568;85;21614;-87
2020/12/25 07:08:05;;;;;;;10.68;7.17;;;;;;;3.23;92.71;98528.01;4170154;84;21982;-87
2020/12/25 07:14:09;;;;;;;10.95;7.58;;;;;;;3.20;92.74;98530.25;4158658;84;21172;-86
2020/12/25 07:20:11;;;;;;;18.02;9.93;;;;;;;3.21;92.65;98547.28;4147225;84;21181;-86
2020/12/25 07:26:13;;;;;;;17.48;11.85;;;;;;;3.19;92.73;98554.34;4163972;84;21200;-88
2020/12/25 07:32:15;;;;;;;17.75;9.90;;;;;;;3.19;92.55;98563.05;4155378;84;21689;-86
2020/12/25 07:38:16;;;;;;;18.27;10.95;;;;;;;3.18;92.35;98564.16;4140989;84;21184;-85
2020/12/25 07:44:20;;;;;;;15.80;9.68;;;;;;;3.17;92.37;98571.50;4151680;84;21192;-86
2020/12/25 07:50:22;;;;;;;22.40;11.30;;;;;;;3.13;92.32;98573.28;4153514;84;21142;-86
2020/12/25 07:56:33;;;;;;;24.30;13.20;;;;;;;3.14;92.19;98570.02;4148808;84;21202;-86
2020/12/25 08:02:35;;;;;;;29.05;16.70;;;;;;;3.18;92.45;98573.06;4170006;84;21443;-86
2020/12/25 08:08:37;;;;;;;34.18;21.90;;;;;;;3.23;92.52;98588.87;4165263;84;21220;-87
2020/12/25 08:14:42;;;;;;;31.25;21.45;;;;;;;3.25;92.55;98596.86;4107205;85;21634;-87
2020/12/25 08:20:46;;;;;;;24.00;17.05;;;;;;;3.28;92.61;98614.33;4116061;84;21370;-87
2020/12/25 08:26:47;;;;;;;20.02;14.90;;;;;;;3.31;92.40;98609.59;4112246;84;21165;-86
2020/12/25 08:32:56;;;;;;;18.85;12.18;;;;;;;3.34;92.44;98617.03;4120203;84;21232;-86
2020/12/25 08:38:57;;;;;;;18.75;11.55;;;;;;;3.30;92.31;98621.00;4108194;86;21634;-86
2020/12/25 08:44:59;;;;;;;20.12;10.23;;;;;;;3.29;92.48;98629.45;4176208;84;21224;-86
2020/12/25 08:51:13;;;;;;;17.27;9.85;;;;;;;3.35;92.62;98641.63;4167228;84;21253;-87
2020/12/25 08:57:14;;;;;;;16.87;10.50;;;;;;;3.38;92.58;98643.66;4120675;84;21705;-86
2020/12/25 09:03:15;;;;;;;17.77;8.93;;;;;;;3.37;92.78;98645.56;4114392;84;21642;-87
2020/12/25 09:09:17;;;;;;;11.93;7.95;;;;;;;3.45;92.87;98655.50;4118557;84;21199;-87
2020/12/25 09:15:19;;;;;;;12.23;7.85;;;;;;;3.56;92.75;98652.59;4117540;84;21205;-87
2020/12/25 09:21:28;;;;;;;12.95;7.85;;;;;;;3.56;92.19;98659.35;4128913;84;21189;-89
2020/12/25 09:27:33;;;;;;;13.22;6.92;;;;;;;3.54;92.21;98661.59;4163304;84;21510;-86
2020/12/25 09:33:36;;;;;;;10.70;6.67;;;;;;;3.54;92.28;98653.48;4123682;85;21698;-87
2020/12/25 09:39:37;;;;;;;13.43;8.73;;;;;;;3.63;92.30;98654.19;4168218;84;21203;-88
2020/12/25 09:45:42;;;;;;;14.33;9.78;;;;;;;3.64;92.17;98651.70;4166458;85;21810;-87
2020/12/25 09:51:44;;;;;;;19.90;9.90;;;;;;;3.61;91.91;98648.87;4163938;84;21199;-88
2020/12/25 09:57:46;;;;;;;19.50;12.18;;;;;;;3.60;92.23;98650.80;4154834;85;21206;-88
2020/12/25 10:03:47;;;;;;;23.38;13.95;;;;;;;3.66;92.22;98654.06;4159263;84;21151;-87
2020/12/25 10:09:49;;;;;;;24.57;14.53;;;;;;;3.74;92.41;98660.73;4155566;85;21647;-88
2020/12/25 10:15:56;;;;;;;19.17;11.57;;;;;;;3.77;92.36;98664.12;4166988;85;21604;-88
2020/12/25 10:21:59;;;;;;;20.02;12.60;;;;;;;3.81;92.14;98664.21;4129699;85;21597;-88
2020/12/25 10:28:01;;;;;;;21.27;12.68;;;;;;;3.78;91.96;98677.07;4153155;84;21192;-88
2020/12/25 10:34:03;;;;;;;18.57;12.03;;;;;;;3.79;92.14;98679.44;4116444;86;21176;-87
2020/12/25 10:40:08;;;;;;;19.27;12.88;;;;;;;3.90;92.10;98665.68;4169938;85;21174;-88
2020/12/25 10:46:23;;;;;;;19.27;11.10;;;;;;;3.95;91.85;98675.48;4210419;84;21178;-89
2020/12/25 10:52:25;;;;;;;24.25;14.95;;;;;;;3.97;91.94;98676.75;4147980;85;21150;-88
2020/12/25 10:58:27;;;;;;;25.60;16.40;;;;;;;3.87;91.66;98673.13;4188998;84;21422;-88
2020/12/25 11:04:29;;;;;;;35.13;18.90;;;;;;;3.86;91.96;98681.04;4172076;84;21707;-88
2020/12/25 11:10:46;;;;;;;33.92;18.12;;;;;;;3.96;91.92;98679.80;4587819;76;22908;-89
2020/12/25 11:16:48;;;;;;;36.48;20.75;;;;;;;4.11;92.13;98677.75;4469636;79;21136;-88
2020/12/25 11:22:50;;;;;;;33.63;19.80;;;;;;;4.07;91.68;98676.86;4479366;78;21148;-88
2020/12/25 11:28:55;;;;;;;37.78;21.05;;;;;;;4.06;91.96;98681.48;4484968;78;21105;-88
2020/12/25 11:34:56;;;;;;;31.07;17.45;;;;;;;4.10;91.75;98676.18;4499729;79;21140;-90
2020/12/25 11:41:00;;;;;;;34.23;20.15;;;;;;;4.04;91.63;98681.02;4477357;79;21125;-89
2020/12/25 11:47:02;;;;;;;33.75;19.75;;;;;;;3.85;91.98;98684.88;4474384;79;21180;-89
2020/12/25 11:53:04;;;;;;;31.90;19.70;;;;;;;3.86;92.20;98681.04;4500831;79;21168;-88
2020/12/25 11:59:08;;;;;;;33.65;21.62;;;;;;;3.89;91.98;98680.91;4506171;79;21153;-88
2020/12/25 12:28:45;;;;;;;36.23;21.20;;;;;;;3.98;91.79;98693.77;4342205;80;21334;-87
2020/12/25 12:35:07;;;;;;;35.13;21.23;;;;;;;3.89;92.22;98699.31;4574006;76;22903;-86
2020/12/25 12:41:13;;;;;;;40.38;24.75;;;;;;;3.95;92.38;98701.22;4501040;78;21116;-88
2020/12/25 12:47:17;;;;;;;42.20;23.42;;;;;;;4.03;92.35;98708.45;4470404;78;21580;-88
2020/12/25 12:53:19;;;;;;;37.83;22.70;;;;;;;3.95;92.08;98707.44;4487891;79;21173;-87
2020/12/25 12:59:21;;;;;;;37.40;21.27;;;;;;;3.95;92.20;98710.14;4473259;79;21150;-88
2020/12/25 13:05:26;;;;;;;40.52;23.02;;;;;;;3.84;92.22;98704.95;4485622;79;21285;-88
2020/12/25 13:11:33;;;;;;;40.35;23.83;;;;;;;3.88;92.13;98709.12;4488644;79;21571;-88
2020/12/25 13:17:34;;;;;;;37.03;21.02;;;;;;;3.88;92.30;98711.28;4477380;79;21140;-89
2020/12/25 13:23:38;;;;;;;39.78;22.67;;;;;;;3.92;92.14;98718.95;4499124;79;21129;-88
2020/12/25 13:29:39;;;;;;;39.23;21.70;;;;;;;3.98;92.18;98716.79;4428665;78;21397;-91
2020/12/25 13:35:41;;;;;;;34.70;20.10;;;;;;;3.95;91.85;98721.53;4491330;78;21129;-88
2020/12/25 13:41:43;;;;;;;32.13;18.75;;;;;;;3.90;92.17;98732.02;4507375;78;21157;-89
2020/12/25 13:47:45;;;;;;;33.88;19.00;;;;;;;3.90;92.04;98738.80;4529821;78;21149;-94
2020/12/25 13:53:48;;;;;;;23.10;12.58;;;;;;;3.91;92.12;98739.59;4497422;78;21141;-92
2020/12/25 13:59:55;;;;;;;14.83;8.80;;;;;;;3.78;91.72;98748.27;4484592;79;21192;-86
2020/12/25 14:05:57;;;;;;;11.97;6.05;;;;;;;3.61;91.51;98766.05;4500309;78;21141;-88
2020/12/25 14:11:59;;;;;;;15.10;6.28;;;;;;;3.37;91.38;98774.09;4480304;78;21553;-88
2020/12/25 14:18:00;;;;;;;12.60;6.17;;;;;;;3.12;91.38;98776.45;4529952;77;21720;-88
2020/12/25 14:24:06;;;;;;;11.38;6.70;;;;;;;3.14;91.99;98772.32;4494050;79;21133;-89
2020/12/25 14:30:11;;;;;;;10.70;6.55;;;;;;;3.17;91.99;98790.59;4478639;79;21581;-89
2020/12/25 14:36:12;;;;;;;13.60;7.42;;;;;;;3.17;92.07;98796.55;4483477;79;21176;-88
2020/12/25 14:42:17;;;;;;;13.18;7.25;;;;;;;3.17;92.31;98804.66;4480865;79;21136;-88
2020/12/25 14:48:18;;;;;;;14.35;8.05;;;;;;;3.21;92.27;98813.14;4481026;79;21689;-87
2020/12/25 14:54:23;;;;;;;15.72;8.80;;;;;;;3.29;92.13;98816.12;4485437;78;21140;-86
2020/12/25 15:00:24;;;;;;;27.48;12.33;;;;;;;3.29;92.12;98833.70;4483142;78;21144;-86
2020/12/25 15:06:28;;;;;;;11.97;6.53;;;;;;;3.05;91.65;98837.84;4487419;78;21136;-87
2020/12/25 15:12:30;;;;;;;13.58;7.20;;;;;;;2.86;91.39;98846.97;4482055;78;21133;-86
2020/12/25 15:18:31;;;;;;;13.10;7.35;;;;;;;2.70;91.24;98847.30;4495262;78;21383;-88
2020/12/25 15:24:35;;;;;;;14.33;8.20;;;;;;;2.60;91.13;98848.24;4494723;78;21175;-86
2020/12/25 15:30:36;;;;;;;15.48;8.78;;;;;;;2.59;91.42;98857.45;4489717;78;21436;-86
2020/12/25 15:36:38;;;;;;;17.27;9.65;;;;;;;2.63;91.30;98862.45;4489238;78;21145;-85
2020/12/25 15:42:40;;;;;;;16.37;9.50;;;;;;;2.63;91.39;98869.20;4482536;78;21592;-86
2020/12/25 15:48:46;;;;;;;18.87;9.10;;;;;;;2.64;91.44;98876.19;4485564;78;21104;-86
2020/12/25 15:54:48;;;;;;;14.87;7.47;;;;;;;2.58;91.20;98870.73;4481442;78;21326;-86
2020/12/25 16:00:52;;;;;;;12.78;7.58;;;;;;;2.55;91.21;98872.16;4482617;78;21148;-85
2020/12/25 16:06:54;;;;;;;13.78;8.10;;;;;;;2.53;91.20;98881.72;4493807;78;21193;-86
2020/12/25 16:13:04;;;;;;;18.75;9.03;;;;;;;2.49;91.31;98885.63;4489947;78;21290;-85
2020/12/25 16:19:06;;;;;;;15.05;8.10;;;;;;;2.37;91.25;98902.28;4489887;78;21748;-85
2020/12/25 16:25:08;;;;;;;17.40;8.98;;;;;;;2.25;91.07;98902.97;4486159;78;21165;-85
2020/12/25 16:31:09;;;;;;;24.55;12.58;;;;;;;2.14;91.17;98900.38;4482600;78;21141;-87
2020/12/25 16:37:14;;;;;;;21.25;10.82;;;;;;;2.12;91.23;98903.95;4487478;78;21307;-87
2020/12/25 16:43:15;;;;;;;26.00;12.05;;;;;;;2.04;91.10;98906.11;4482090;78;21144;-87
2020/12/25 16:49:17;;;;;;;21.85;11.38;;;;;;;1.96;91.75;98915.02;4489192;78;21168;-86
2020/12/25 16:55:19;;;;;;;26.33;13.78;;;;;;;2.07;91.91;98920.90;4483787;78;21121;-86
2020/12/25 17:01:25;;;;;;;22.80;13.22;;;;;;;2.08;91.85;98931.38;4486759;78;21138;-87
2020/12/25 17:07:27;;;;;;;38.53;17.60;;;;;;;2.17;92.17;98934.84;4485407;78;21136;-87
2020/12/25 17:13:28;;;;;;;44.45;19.30;;;;;;;2.25;91.76;98942.69;4488743;78;21164;-87
2020/12/25 17:19:31;;;;;;;43.17;20.48;;;;;;;2.27;91.30;98938.53;4492801;78;21790;-87
2020/12/25 17:25:33;;;;;;;40.33;18.17;;;;;;;2.29;91.51;98936.31;4495880;78;21139;-86
2020/12/25 17:31:35;;;;;;;34.63;18.12;;;;;;;2.29;91.28;98949.82;4491157;78;21738;-86
2020/12/25 17:37:37;;;;;;;34.98;18.27;;;;;;;2.29;91.26;98956.58;4486417;78;21371;-87
2020/12/25 17:43:40;;;;;;;38.10;18.23;;;;;;;2.27;91.31;98963.42;4480965;78;21157;-87
2020/12/25 17:49:42;;;;;;;44.25;19.30;;;;;;;2.30;91.29;98971.66;4490822;78;21188;-85
2020/12/25 17:55:43;;;;;;;35.78;14.13;;;;;;;2.27;90.86;98970.95;4483944;78;21133;-86
2020/12/25 18:01:45;;;;;;;27.07;13.08;;;;;;;2.22;90.60;98968.98;4481764;78;21192;-86
2020/12/25 18:07:48;;;;;;;30.70;12.95;;;;;;;2.28;91.06;98968.50;4482565;78;21690;-86
2020/12/25 18:13:49;;;;;;;39.45;16.00;;;;;;;2.36;91.00;98975.80;4489504;78;21144;-87
2020/12/25 18:19:51;;;;;;;34.75;14.87;;;;;;;2.25;91.23;98970.50;4491136;78;21161;-87
2020/12/25 18:25:53;;;;;;;35.40;16.70;;;;;;;2.23;90.87;98967.86;4494626;78;21141;-86
2020/12/25 18:32:06;;;;;;;47.98;18.15;;;;;;;2.15;91.07;98977.58;4490562;78;21527;-87
2020/12/25 18:38:08;;;;;;;53.85;20.70;;;;;;;2.18;91.02;98984.23;4469535;79;21165;-86
2020/12/25 18:44:09;;;;;;;45.55;20.23;;;;;;;2.01;90.99;98987.75;4477486;78;21160;-87
2020/12/25 18:50:12;;;;;;;42.05;19.20;;;;;;;2.11;91.51;98993.39;4483087;78;21118;-86
2020/12/25 18:56:32;;;;;;;47.55;23.10;;;;;;;2.23;91.33;98998.38;4472851;78;21117;-86
2020/12/25 19:02:34;;;;;;;46.20;22.75;;;;;;;2.25;91.01;99005.61;4473848;78;21145;-87
2020/12/25 19:08:35;;;;;;;49.42;23.10;;;;;;;2.21;91.09;99012.75;4476150;78;21650;-87
2020/12/25 19:14:38;;;;;;;41.63;21.73;;;;;;;2.24;91.01;99014.03;4478890;78;21161;-87
2020/12/25 19:20:42;;;;;;;50.50;22.82;;;;;;;2.28;91.01;99027.92;4471208;78;21169;-87
2020/12/25 19:26:43;;;;;;;47.60;23.42;;;;;;;2.30;91.27;99033.78;4485219;78;21642;-87
2020/12/25 19:32:45;;;;;;;46.50;22.32;;;;;;;2.25;90.57;99034.52;4470714;78;21175;-86
2020/12/25 19:38:47;;;;;;;38.73;17.20;;;;;;;2.14;90.41;99038.11;4479666;78;22368;-85
2020/12/25 19:44:50;;;;;;;39.80;18.30;;;;;;;2.12;90.33;99040.33;4478819;78;21124;-86
2020/12/25 19:50:52;;;;;;;41.42;19.15;;;;;;;2.15;90.54;99049.69;4485442;78;21179;-87
2020/12/25 19:56:54;;;;;;;31.45;13.10;;;;;;;2.04;89.96;99051.91;4484585;78;21149;-86
2020/12/25 20:02:55;;;;;;;32.10;13.80;;;;;;;1.86;89.37;99051.68;4452815;78;21280;-85
2020/12/25 20:08:57;;;;;;;25.50;11.25;;;;;;;1.81;88.62;99051.02;4492878;78;21659;-87
2020/12/25 20:14:59;;;;;;;20.80;9.28;;;;;;;1.74;88.43;99053.41;4493871;78;21192;-87
2020/12/25 20:21:00;;;;;;;16.97;9.18;;;;;;;1.66;87.93;99055.54;4492211;78;21140;-87
2020/12/25 20:27:05;;;;;;;21.02;10.05;;;;;;;1.64;88.10;99055.86;4486509;78;21160;-87
2020/12/25 20:33:08;;;;;;;20.37;10.15;;;;;;;1.59;87.96;99054.65;4483677;78;21599;-86
2020/12/25 20:39:09;;;;;;;26.37;11.25;;;;;;;1.60;88.19;99061.63;4488055;78;21718;-87
2020/12/25 20:45:11;;;;;;;24.67;13.30;;;;;;;1.60;88.31;99061.63;4492153;78;21586;-85
2020/12/25 20:51:13;;;;;;;26.62;12.30;;;;;;;1.60;87.95;99071.07;4492568;78;21153;-86
2020/12/25 20:57:15;;;;;;;31.65;13.72;;;;;;;1.57;87.69;99075.75;4485520;78;21646;-87
2020/12/25 21:03:18;;;;;;;25.23;11.55;;;;;;;1.58;87.80;99086.22;4489401;78;21161;-87
2020/12/25 21:09:20;;;;;;;25.50;12.03;;;;;;;1.59;87.87;99089.19;4487703;78;21160;-87
2020/12/25 21:15:24;;;;;;;29.35;12.60;;;;;;;1.66;87.77;99103.53;4486499;78;22168;-87
2020/12/25 21:21:26;;;;;;;24.95;11.68;;;;;;;1.66;87.68;99110.86;4486059;78;21128;-87
2020/12/25 21:27:27;;;;;;;30.75;12.35;;;;;;;1.64;87.58;99117.92;4491316;78;21136;-86
2020/12/25 21:33:29;;;;;;;26.80;12.05;;;;;;;1.59;87.54;99131.55;4488187;78;21669;-86
2020/12/25 21:39:30;;;;;;;24.72;12.23;;;;;;;1.57;87.78;99125.12;4490185;78;21152;-87
2020/12/25 21:45:32;;;;;;;30.88;14.58;;;;;;;1.58;87.79;99123.22;4490199;78;21740;-86
2020/12/25 21:51:34;;;;;;;33.42;15.30;;;;;;;1.57;87.75;99131.05;4492365;78;21583;-87
2020/12/25 21:57:35;;;;;;;30.70;14.70;;;;;;;1.55;87.88;99130.59;4487888;78;21167;-87
2020/12/25 22:03:36;;;;;;;31.48;15.88;;;;;;;1.55;88.07;99139.47;4483225;78;21164;-86
2020/12/25 22:09:38;;;;;;;37.30;17.75;;;;;;;1.56;88.03;99132.17;4494785;78;21153;-87
2020/12/25 22:15:40;;;;;;;35.55;16.32;;;;;;;1.55;87.86;99131.38;4484985;78;21606;-87
2020/12/25 22:21:43;;;;;;;39.92;20.02;;;;;;;1.52;87.72;99124.45;4482798;78;21157;-87
2020/12/25 22:27:45;;;;;;;34.53;17.02;;;;;;;1.48;87.79;99128.89;4491134;78;21622;-87
2020/12/25 22:33:46;;;;;;;33.05;16.05;;;;;;;1.37;88.02;99114.09;4490899;78;21132;-86
2020/12/25 22:39:50;;;;;;;32.28;17.57;;;;;;;1.31;87.99;99098.62;4487802;78;21447;-87
2020/12/25 22:45:52;;;;;;;41.98;17.73;;;;;;;1.51;87.99;99136.36;4486777;78;21129;-86
2020/12/25 22:51:53;;;;;;;41.48;18.23;;;;;;;1.47;87.93;99136.18;4495921;78;21169;-87
2020/12/25 22:57:55;;;;;;;96.28;32.20;;;;;;;1.48;88.13;99141.03;4491858;78;21196;-87
2020/12/25 23:03:56;;;;;;;88.65;31.30;;;;;;;1.47;87.98;99140.80;4484450;78;21657;-87
2020/12/25 23:09:58;;;;;;;36.93;18.92;;;;;;;1.44;88.11;99142.20;4488590;78;21145;-87
2020/12/25 23:16:00;;;;;;;44.30;22.05;;;;;;;1.42;87.97;99144.44;4490831;78;21206;-87
2020/12/25 23:22:01;;;;;;;31.10;15.30;;;;;;;1.40;87.80;99152.58;4485108;78;21085;-87
2020/12/25 23:28:03;;;;;;;31.27;14.47;;;;;;;1.34;87.34;99155.98;4491187;78;21176;-87
2020/12/25 23:34:04;;;;;;;26.07;12.85;;;;;;;1.16;87.07;99134.06;4481530;78;21718;-87
2020/12/25 23:40:06;;;;;;;24.35;10.85;;;;;;;1.16;87.07;99134.06;4493796;78;22384;-87
2020/12/25 23:46:09;;;;;;;19.23;10.40;;;;;;;1.24;86.92;99162.98;4485642;78;21149;-87
2020/12/25 23:52:11;;;;;;;22.58;9.70;;;;;;;1.17;86.84;99143.77;4483362;78;21569;-87
2020/12/25 23:58:13;;;;;;;16.95;8.08;;;;;;;1.16;86.60;99144.08;4488112;78;21164;-87
